createdAt,value
2023-03-29T00:02:33.706Z,-1.96
2023-03-29T00:07:36.825Z,-1.96
2023-03-29T00:12:41.889Z,-1.95
2023-03-29T00:17:44.772Z,-1.93
2023-03-29T00:22:47.637Z,-1.93
2023-03-29T00:27:51.103Z,-1.95
2023-03-29T00:32:53.851Z,-1.98
2023-03-29T00:37:57.836Z,-2.02
2023-03-29T00:43:01.052Z,-2.06
2023-03-29T00:48:11.231Z,-2.10
2023-03-29T00:53:23.068Z,-2.10
2023-03-29T00:58:40.581Z,-2.06
2023-03-29T01:03:58.357Z,-2.06
2023-03-29T01:09:09.426Z,-2.08
2023-03-29T01:14:20.722Z,-2.11
2023-03-29T01:19:27.480Z,-2.15
2023-03-29T01:24:42.107Z,-2.15
2023-03-29T01:30:04.276Z,-2.16
2023-03-29T01:35:35.862Z,-2.15
2023-03-29T01:40:38.895Z,-2.19
2023-03-29T01:45:48.195Z,-2.20
2023-03-29T01:51:18.785Z,-2.20
2023-03-29T01:56:26.469Z,-2.19
2023-03-29T02:01:34.723Z,-2.19
2023-03-29T02:06:39.747Z,-2.18
2023-03-29T02:11:44.950Z,-2.17
2023-03-29T02:16:49.741Z,-2.20
2023-03-29T02:22:04.086Z,-2.24
2023-03-29T02:27:07.589Z,-2.28
2023-03-29T02:32:19.808Z,-2.28
2023-03-29T02:37:26.721Z,-2.30
2023-03-29T02:42:30.497Z,-2.30
2023-03-29T02:47:43.969Z,-2.35
2023-03-29T02:52:54.173Z,-2.37
2023-03-29T02:57:57.992Z,-2.39
2023-03-29T03:03:02.037Z,-2.34
2023-03-29T03:08:07.341Z,-2.27
2023-03-29T03:13:10.293Z,-2.18
2023-03-29T03:18:13.129Z,-2.17
2023-03-29T03:23:15.900Z,-2.22
2023-03-29T03:28:19.247Z,-2.27
2023-03-29T03:33:22.012Z,-2.31
2023-03-29T03:38:24.718Z,-2.35
2023-03-29T03:43:28.267Z,-2.40
2023-03-29T03:48:31.775Z,-2.49
2023-03-29T03:53:34.493Z,-2.57
2023-03-29T03:58:38.104Z,-2.64
2023-03-29T04:03:41.185Z,-2.63
2023-03-29T04:08:44.263Z,-2.62
2023-03-29T04:13:47.016Z,-2.65
2023-03-29T04:18:50.063Z,-2.68
2023-03-29T04:23:52.946Z,-2.67
2023-03-29T04:28:56.035Z,-2.66
2023-03-29T04:34:00.396Z,-2.66
2023-03-29T04:39:04.363Z,-2.66
2023-03-29T04:44:07.127Z,-2.61
2023-03-29T04:49:10.153Z,-2.59
2023-03-29T04:54:12.892Z,-2.59
2023-03-29T04:59:15.601Z,-2.60
2023-03-29T05:04:18.483Z,-2.60
2023-03-29T05:09:22.316Z,-2.57
2023-03-29T05:14:26.092Z,-2.50
2023-03-29T05:19:28.797Z,-2.47
2023-03-29T05:24:31.850Z,-2.43
2023-03-29T05:29:34.583Z,-2.38
2023-03-29T05:34:40.434Z,-2.28
2023-03-29T05:39:44.353Z,-2.17
2023-03-29T05:44:49.517Z,-2.06
2023-03-29T05:49:52.863Z,-1.98
2023-03-29T05:54:56.867Z,-1.89
2023-03-29T05:59:59.595Z,-1.75
2023-03-29T06:05:03.119Z,-1.60
2023-03-29T06:10:09.717Z,-1.48
2023-03-29T06:15:14.261Z,-1.38
2023-03-29T06:20:21.004Z,-1.25
2023-03-29T06:25:25.056Z,-1.09
2023-03-29T06:30:27.962Z,-0.96
2023-03-29T06:35:46.037Z,-0.77
2023-03-29T06:40:49.485Z,-0.54
2023-03-29T06:45:55.085Z,-0.24
2023-03-29T06:50:57.965Z,0.01
2023-03-29T06:56:05.375Z,0.22
2023-03-29T07:01:08.136Z,0.40
2023-03-29T07:06:12.305Z,0.61
2023-03-29T07:11:16.380Z,0.86
2023-03-29T07:16:19.676Z,1.10
2023-03-29T07:21:24.837Z,1.38
2023-03-29T07:26:30.158Z,1.65
2023-03-29T07:31:35.842Z,1.98
2023-03-29T07:36:44.744Z,2.33
2023-03-29T07:41:50.082Z,2.59
2023-03-29T07:46:52.873Z,2.76
2023-03-29T07:51:58.722Z,2.96
2023-03-29T07:57:02.642Z,3.21
2023-03-29T08:02:07.526Z,3.37
2023-03-29T08:07:10.458Z,3.56
2023-03-29T08:12:25.093Z,3.75
2023-03-29T08:17:28.293Z,4.01
2023-03-29T08:22:32.841Z,4.24
2023-03-29T08:27:35.789Z,4.50
2023-03-29T08:32:39.497Z,4.63
2023-03-29T08:37:44.725Z,4.69
2023-03-29T08:42:59.413Z,4.88
2023-03-29T08:48:17.841Z,5.08
2023-03-29T08:53:29.828Z,5.20
2023-03-29T08:58:34.321Z,5.35
2023-03-29T09:04:05.904Z,5.42
2023-03-29T09:09:18.029Z,5.45
2023-03-29T09:14:36.656Z,5.53
2023-03-29T09:20:16.254Z,5.67
2023-03-29T09:25:47.237Z,5.83
2023-03-29T09:31:12.487Z,6.00
2023-03-29T09:36:25.845Z,6.03
2023-03-29T09:41:57.490Z,6.25
2023-03-29T09:47:29.613Z,6.51
2023-03-29T09:57:50.853Z,6.89
2023-03-29T10:02:57.852Z,7.04
2023-03-29T10:08:19.669Z,7.01
2023-03-29T10:13:33.044Z,7.06
2023-03-29T10:18:43.876Z,7.30
2023-03-29T10:23:48.547Z,7.54
2023-03-29T10:28:54.976Z,7.72
2023-03-29T10:34:02.999Z,7.78
2023-03-29T10:39:30.945Z,7.90
2023-03-29T10:44:36.606Z,8.05
2023-03-29T10:49:41.754Z,8.21
2023-03-29T10:54:44.849Z,8.43
2023-03-29T10:59:57.898Z,8.55
2023-03-29T11:05:17.781Z,8.59
2023-03-29T11:10:35.583Z,8.81
2023-03-29T11:15:56.625Z,8.99
2023-03-29T11:21:36.948Z,8.96
2023-03-29T11:27:12.291Z,9.03
2023-03-29T11:32:19.189Z,8.99
2023-03-29T11:37:32.962Z,8.99
2023-03-29T11:42:43.645Z,9.31
2023-03-29T11:47:48.359Z,9.72
2023-03-29T11:53:17.927Z,9.71
2023-03-29T11:58:36.644Z,9.69
2023-03-29T12:03:55.848Z,9.84
2023-03-29T12:09:14.272Z,10.28
2023-03-29T12:14:28.291Z,10.47
2023-03-29T12:19:33.888Z,10.82
2023-03-29T12:24:40.894Z,11.57
2023-03-29T12:29:49.683Z,12.40
2023-03-29T12:35:02.739Z,13.11
2023-03-29T12:40:14.075Z,13.90
2023-03-29T12:45:52.111Z,14.49
2023-03-29T12:51:02.320Z,15.51
2023-03-29T12:56:08.876Z,16.76
2023-03-29T13:01:31.451Z,18.33
2023-03-29T13:06:54.221Z,19.69
2023-03-29T13:12:11.180Z,19.42
2023-03-29T13:17:35.001Z,19.76
2023-03-29T13:23:03.243Z,20.31
2023-03-29T13:28:34.428Z,19.41
2023-03-29T13:33:53.756Z,19.61
2023-03-29T13:39:07.129Z,20.85
2023-03-29T13:44:22.260Z,19.23
2023-03-29T13:49:27.931Z,16.93
2023-03-29T13:54:33.248Z,15.10
2023-03-29T13:59:52.310Z,14.12
2023-03-29T14:04:56.251Z,14.18
2023-03-29T14:10:01.288Z,13.77
2023-03-29T14:15:07.552Z,13.56
2023-03-29T14:20:15.634Z,13.50
2023-03-29T14:25:22.776Z,13.91
2023-03-29T14:30:29.057Z,15.08
2023-03-29T14:35:33.285Z,14.79
2023-03-29T14:40:36.557Z,14.62
2023-03-29T14:45:39.586Z,15.32
2023-03-29T14:50:44.246Z,16.48
2023-03-29T14:55:51.792Z,17.84
2023-03-29T15:00:55.334Z,19.15
2023-03-29T15:06:02.837Z,19.46
2023-03-29T15:11:33.047Z,18.90
2023-03-29T15:16:42.165Z,17.37
2023-03-29T15:21:47.958Z,15.96
2023-03-29T15:27:03.737Z,14.39
2023-03-29T15:32:07.050Z,13.01
2023-03-29T15:37:12.684Z,12.08
2023-03-29T15:42:15.514Z,11.36
2023-03-29T15:47:18.224Z,10.78
2023-03-29T15:52:21.009Z,10.34
2023-03-29T15:57:23.865Z,9.95
2023-03-29T16:02:28.471Z,9.57
2023-03-29T16:07:31.354Z,9.28
2023-03-29T16:12:36.087Z,9.07
2023-03-29T16:17:38.956Z,8.91
2023-03-29T16:22:42.687Z,8.73
2023-03-29T16:27:46.534Z,8.59
2023-03-29T16:32:49.286Z,8.44
2023-03-29T16:37:52.555Z,8.31
2023-03-29T16:42:55.377Z,8.24
2023-03-29T16:47:58.362Z,8.15
2023-03-29T16:53:01.153Z,8.06
2023-03-29T16:58:05.005Z,7.95
2023-03-29T17:03:08.227Z,7.86
2023-03-29T17:08:11.075Z,7.77
2023-03-29T17:13:13.881Z,7.66
2023-03-29T17:18:16.590Z,7.56
2023-03-29T17:23:19.438Z,7.48
2023-03-29T17:28:23.226Z,7.41
2023-03-29T17:33:26.398Z,7.33
2023-03-29T17:38:30.746Z,7.25
2023-03-29T17:43:33.487Z,7.18
2023-03-29T17:48:36.255Z,7.13
2023-03-29T17:53:39.044Z,7.08
2023-03-29T17:58:41.840Z,7.06
2023-03-29T18:03:45.144Z,6.99
2023-03-29T18:08:48.238Z,6.92
2023-03-29T18:13:53.015Z,6.86
2023-03-29T18:18:56.949Z,6.81
2023-03-29T18:23:59.773Z,6.77
2023-03-29T18:29:02.749Z,6.75
2023-03-29T18:34:05.886Z,6.73
2023-03-29T18:39:09.196Z,6.70
2023-03-29T18:44:14.171Z,6.66
2023-03-29T18:49:16.884Z,6.64
2023-03-29T18:54:19.871Z,6.59
2023-03-29T18:59:22.636Z,6.53
2023-03-29T19:04:27.225Z,6.49
2023-03-29T19:09:31.042Z,6.44
2023-03-29T19:14:33.809Z,6.37
2023-03-29T19:19:37.974Z,6.29
2023-03-29T19:24:40.701Z,6.23
2023-03-29T19:29:43.424Z,6.22
2023-03-29T19:34:47.649Z,6.22
2023-03-29T19:39:50.864Z,6.25
2023-03-29T19:44:53.700Z,6.26
2023-03-29T19:49:58.548Z,6.26
2023-03-29T19:55:01.428Z,6.24
2023-03-29T20:00:08.137Z,6.20
2023-03-29T20:05:12.657Z,6.15
2023-03-29T20:10:15.587Z,6.12
2023-03-29T20:15:19.170Z,6.04
2023-03-29T20:20:24.297Z,5.95
2023-03-29T20:25:27.905Z,5.84
2023-03-29T20:30:30.786Z,5.76
2023-03-29T20:35:33.647Z,5.73
2023-03-29T20:40:37.211Z,5.75
2023-03-29T20:45:52.822Z,5.75
2023-03-29T20:50:57.890Z,5.75
2023-03-29T20:56:00.716Z,5.75
2023-03-29T21:01:03.809Z,5.78
2023-03-29T21:06:06.930Z,5.79
2023-03-29T21:11:13.185Z,5.82
2023-03-29T21:16:16.071Z,5.85
2023-03-29T21:21:19.095Z,5.88
2023-03-29T21:26:23.948Z,5.90
2023-03-29T21:31:26.705Z,5.93
2023-03-29T21:36:30.560Z,5.96
2023-03-29T21:41:33.310Z,5.99
2023-03-29T21:46:36.033Z,6.01
2023-03-29T21:51:38.818Z,6.03
2023-03-29T21:56:41.627Z,6.05
2023-03-29T22:01:44.391Z,6.06
2023-03-29T22:06:47.114Z,6.07
2023-03-29T22:11:50.199Z,6.08
2023-03-29T22:16:53.052Z,6.09
2023-03-29T22:22:01.462Z,6.09
2023-03-29T22:27:04.405Z,6.10
2023-03-29T22:32:07.214Z,6.13
2023-03-29T22:37:10.196Z,6.13
2023-03-29T22:42:12.903Z,6.13
2023-03-29T22:47:16.181Z,6.12
2023-03-29T22:52:18.882Z,6.09
2023-03-29T22:57:21.723Z,6.05
2023-03-29T23:02:24.469Z,6.02
2023-03-29T23:07:28.326Z,6.00
2023-03-29T23:12:32.017Z,5.99
2023-03-29T23:17:35.107Z,5.97
2023-03-29T23:22:39.843Z,5.95
2023-03-29T23:27:43.331Z,5.93
2023-03-29T23:32:46.983Z,5.91
2023-03-29T23:37:49.751Z,5.89
2023-03-29T23:42:59.739Z,5.89
2023-03-29T23:48:02.807Z,5.88
2023-03-29T23:53:06.582Z,5.85
2023-03-29T23:58:09.332Z,5.83
